createdAt,value
2023-02-15T00:01:16.098Z,20.57
2023-02-15T00:03:42.511Z,17.70
2023-02-15T00:06:09.310Z,20.00
2023-02-15T00:08:36.086Z,20.40
2023-02-15T00:11:06.853Z,20.87
2023-02-15T00:13:33.645Z,25.47
2023-02-15T00:16:01.871Z,21.00
2023-02-15T00:18:28.510Z,20.67
2023-02-15T00:20:54.888Z,21.17
2023-02-15T00:23:23.772Z,20.43
2023-02-15T00:25:50.881Z,19.90
2023-02-15T00:28:17.256Z,22.30
2023-02-15T00:30:44.366Z,20.90
2023-02-15T00:33:10.958Z,19.83
2023-02-15T00:35:37.503Z,23.93
2023-02-15T00:38:03.881Z,19.83
2023-02-15T00:40:30.486Z,24.20
2023-02-15T00:42:58.302Z,19.67
2023-02-15T00:45:24.677Z,23.10
2023-02-15T00:47:51.991Z,21.80
2023-02-15T00:50:18.827Z,23.00
2023-02-15T00:52:46.314Z,20.87
2023-02-15T00:55:12.931Z,18.67
2023-02-15T00:57:39.370Z,19.30
2023-02-15T01:00:06.529Z,20.47
2023-02-15T01:02:34.371Z,24.60
2023-02-15T01:05:02.282Z,23.17
2023-02-15T01:07:28.720Z,17.27
2023-02-15T01:09:55.087Z,21.97
2023-02-15T01:12:21.474Z,20.67
2023-02-15T01:14:47.852Z,19.70
2023-02-15T01:19:58.795Z,19.20
2023-02-15T01:22:25.199Z,23.27
2023-02-15T01:25:11.091Z,22.83
2023-02-15T01:27:37.473Z,19.70
2023-02-15T01:30:05.484Z,18.07
2023-02-15T01:32:32.559Z,19.27
2023-02-15T01:34:59.066Z,17.90
2023-02-15T01:37:27.447Z,19.63
2023-02-15T01:39:54.817Z,17.93
2023-02-15T01:42:24.886Z,15.63
2023-02-15T01:44:53.074Z,16.50
2023-02-15T01:47:41.238Z,15.10
2023-02-15T01:50:14.701Z,14.20
2023-02-15T01:52:46.153Z,16.60
2023-02-15T01:55:13.548Z,13.27
2023-02-15T01:57:40.401Z,16.03
2023-02-15T02:00:07.120Z,15.10
2023-02-15T02:02:39.818Z,15.17
2023-02-15T02:05:07.965Z,17.63
2023-02-15T02:07:37.766Z,14.07
2023-02-15T02:10:06.088Z,15.30
2023-02-15T02:12:34.115Z,15.37
2023-02-15T02:15:01.309Z,12.53
2023-02-15T02:17:43.792Z,13.47
2023-02-15T02:20:16.869Z,15.13
2023-02-15T02:23:13.498Z,15.57
2023-02-15T02:26:07.523Z,15.50
2023-02-15T02:29:13.978Z,14.90
2023-02-15T02:31:50.993Z,14.90
2023-02-15T02:34:20.884Z,12.50
2023-02-15T02:36:52.234Z,16.07
2023-02-15T02:39:29.982Z,17.00
2023-02-15T02:42:02.590Z,14.30
2023-02-15T02:44:34.772Z,15.97
2023-02-15T02:47:11.175Z,14.30
2023-02-15T02:49:38.884Z,15.67
2023-02-15T02:52:07.766Z,17.80
2023-02-15T02:54:35.792Z,15.50
2023-02-15T02:57:04.528Z,14.43
2023-02-15T02:59:34.024Z,13.63
2023-02-15T03:02:13.701Z,15.57
2023-02-15T03:04:43.658Z,14.87
2023-02-15T03:07:12.981Z,17.03
2023-02-15T03:09:44.888Z,17.73
2023-02-15T03:12:17.214Z,15.30
2023-02-15T03:14:50.886Z,20.93
2023-02-15T03:17:17.992Z,22.90
2023-02-15T03:19:46.550Z,16.73
2023-02-15T03:22:20.226Z,15.93
2023-02-15T03:25:05.649Z,19.23
2023-02-15T03:27:34.016Z,20.63
2023-02-15T03:30:03.226Z,15.43
2023-02-15T03:32:30.277Z,16.90
2023-02-15T03:34:56.732Z,16.10
2023-02-15T03:37:27.326Z,11.07
2023-02-15T03:39:53.681Z,14.77
2023-02-15T03:42:27.682Z,17.63
2023-02-15T03:45:09.318Z,12.33
2023-02-15T03:47:38.331Z,14.37
2023-02-15T03:50:27.624Z,12.83
2023-02-15T03:52:55.696Z,14.30
2023-02-15T03:55:22.809Z,12.50
2023-02-15T03:58:08.166Z,12.57
2023-02-15T04:00:55.091Z,16.97
2023-02-15T04:03:24.594Z,16.83
2023-02-15T04:05:51.332Z,15.60
2023-02-15T04:08:17.714Z,13.80
2023-02-15T04:10:53.544Z,14.50
2023-02-15T04:13:24.035Z,12.13
2023-02-15T04:16:06.857Z,12.80
2023-02-15T04:18:54.756Z,12.40
2023-02-15T04:21:41.011Z,9.93
2023-02-15T04:24:26.284Z,14.30
2023-02-15T04:26:56.239Z,14.30
2023-02-15T04:29:23.623Z,11.30
2023-02-15T04:31:50.805Z,11.50
2023-02-15T04:34:17.329Z,16.80
2023-02-15T04:36:43.727Z,12.80
2023-02-15T04:39:10.349Z,12.67
2023-02-15T04:41:36.739Z,17.10
2023-02-15T04:44:03.212Z,16.50
2023-02-15T04:46:29.592Z,15.47
2023-02-15T04:48:56.105Z,16.23
2023-02-15T04:51:22.558Z,16.67
2023-02-15T04:53:49.020Z,9.93
2023-02-15T04:56:15.474Z,12.47
2023-02-15T04:58:42.712Z,12.60
2023-02-15T05:01:09.315Z,12.23
2023-02-15T05:03:35.866Z,14.03
2023-02-15T05:06:02.567Z,16.57
2023-02-15T05:08:29.130Z,13.30
2023-02-15T05:10:55.876Z,10.43
2023-02-15T05:13:22.270Z,11.93
2023-02-15T05:15:52.322Z,15.10
2023-02-15T05:18:19.978Z,11.00
2023-02-15T05:20:46.612Z,15.50
2023-02-15T05:23:13.297Z,15.13
2023-02-15T05:25:58.477Z,15.67
2023-02-15T05:28:26.009Z,17.60
2023-02-15T05:31:01.908Z,19.23
2023-02-15T05:33:28.473Z,22.00
2023-02-15T05:35:54.884Z,16.17
2023-02-15T05:38:21.265Z,13.13
2023-02-15T05:40:50.022Z,14.13
2023-02-15T05:43:16.810Z,12.47
2023-02-15T05:45:47.118Z,10.83
2023-02-15T05:48:13.537Z,19.73
2023-02-15T05:50:39.920Z,16.33
2023-02-15T05:53:06.339Z,14.70
2023-02-15T05:55:32.748Z,12.00
2023-02-15T05:57:59.170Z,14.87
2023-02-15T06:00:26.338Z,14.10
2023-02-15T06:02:53.026Z,19.30
2023-02-15T06:05:19.480Z,13.57
2023-02-15T06:07:46.355Z,15.07
2023-02-15T06:10:12.751Z,14.00
2023-02-15T06:12:39.146Z,14.40
2023-02-15T06:15:05.692Z,17.23
2023-02-15T06:17:32.679Z,16.27
2023-02-15T06:19:59.072Z,15.10
2023-02-15T06:22:25.439Z,15.83
2023-02-15T06:24:51.789Z,16.07
2023-02-15T06:27:18.225Z,14.50
2023-02-15T06:29:44.630Z,15.87
2023-02-15T06:32:11.246Z,13.47
2023-02-15T06:34:37.647Z,11.30
2023-02-15T06:37:04.084Z,12.30
2023-02-15T06:39:30.520Z,13.70
2023-02-15T06:41:58.192Z,15.80
2023-02-15T06:44:24.590Z,13.90
2023-02-15T06:46:51.001Z,10.97
2023-02-15T06:49:17.363Z,14.07
2023-02-15T06:51:43.777Z,13.40
2023-02-15T06:54:10.245Z,13.27
2023-02-15T06:56:36.700Z,12.63
2023-02-15T06:59:03.318Z,11.20
2023-02-15T07:01:29.887Z,8.57
2023-02-15T07:03:56.285Z,14.50
2023-02-15T07:06:22.727Z,12.33
2023-02-15T07:08:49.197Z,12.27
2023-02-15T07:11:34.254Z,11.87
2023-02-15T07:14:00.719Z,10.67
2023-02-15T07:16:27.110Z,13.00
2023-02-15T07:18:53.770Z,13.00
2023-02-15T07:21:20.145Z,13.40
2023-02-15T07:23:46.528Z,14.13
2023-02-15T07:26:12.885Z,15.33
2023-02-15T07:28:39.451Z,15.10
2023-02-15T07:31:06.134Z,14.60
2023-02-15T07:33:33.271Z,16.77
2023-02-15T07:36:02.042Z,15.57
2023-02-15T07:38:30.731Z,15.10
2023-02-15T07:41:00.754Z,10.77
2023-02-15T07:43:27.411Z,10.00
2023-02-15T07:45:53.793Z,11.43
2023-02-15T07:48:20.550Z,10.33
2023-02-15T07:50:47.253Z,10.27
2023-02-15T07:53:13.707Z,15.63
2023-02-15T07:55:40.075Z,12.20
2023-02-15T07:58:06.495Z,15.53
2023-02-15T08:00:53.330Z,11.77
2023-02-15T08:03:20.012Z,10.47
2023-02-15T08:05:46.724Z,10.40
2023-02-15T08:08:30.427Z,10.60
2023-02-15T08:11:19.038Z,10.60
2023-02-15T08:13:54.496Z,9.20
2023-02-15T08:16:30.344Z,10.57
2023-02-15T08:18:57.610Z,8.40
2023-02-15T08:21:26.239Z,8.00
2023-02-15T08:23:53.061Z,9.17
2023-02-15T08:26:19.916Z,9.73
2023-02-15T08:28:47.288Z,10.03
2023-02-15T08:31:14.763Z,10.20
2023-02-15T08:33:42.475Z,9.57
2023-02-15T08:36:10.974Z,7.27
2023-02-15T08:38:37.374Z,7.57
2023-02-15T08:41:14.781Z,8.23
2023-02-15T08:43:42.337Z,8.80
2023-02-15T08:46:10.486Z,8.97
2023-02-15T08:48:37.240Z,10.53
2023-02-15T08:51:11.572Z,7.27
2023-02-15T08:53:38.715Z,9.03
2023-02-15T08:56:05.994Z,8.60
2023-02-15T08:58:32.644Z,8.53
2023-02-15T09:00:59.531Z,8.43
2023-02-15T09:03:26.145Z,7.57
2023-02-15T09:05:57.128Z,8.63
2023-02-15T09:08:23.569Z,8.77
2023-02-15T09:10:50.106Z,9.60
2023-02-15T09:13:16.508Z,8.43
2023-02-15T09:15:42.915Z,8.90
2023-02-15T09:18:09.373Z,9.40
2023-02-15T09:20:36.477Z,9.03
2023-02-15T09:23:02.991Z,8.63
2023-02-15T09:25:29.535Z,8.60
2023-02-15T09:27:55.948Z,7.33
2023-02-15T09:30:22.691Z,8.47
2023-02-15T09:32:49.126Z,9.87
2023-02-15T09:35:15.558Z,9.17
2023-02-15T09:37:41.950Z,9.00
2023-02-15T09:40:08.525Z,10.13
2023-02-15T09:42:55.367Z,9.03
2023-02-15T09:45:27.928Z,9.20
2023-02-15T09:48:13.419Z,7.93
2023-02-15T09:50:42.712Z,9.23
2023-02-15T09:53:15.230Z,9.00
2023-02-15T09:56:00.514Z,7.50
2023-02-15T09:58:42.158Z,9.60
2023-02-15T10:01:20.838Z,9.50
2023-02-15T10:04:01.832Z,8.50
2023-02-15T10:06:47.606Z,9.80
2023-02-15T10:09:17.059Z,8.73
2023-02-15T10:11:56.365Z,9.70
2023-02-15T10:14:38.573Z,9.47
2023-02-15T10:17:08.126Z,9.33
2023-02-15T10:19:40.680Z,9.00
2023-02-15T10:22:07.633Z,9.30
2023-02-15T10:24:40.684Z,9.50
2023-02-15T10:27:16.682Z,10.47
2023-02-15T10:29:49.819Z,9.50
2023-02-15T10:32:19.093Z,10.57
2023-02-15T10:34:51.456Z,10.70
2023-02-15T10:37:25.935Z,10.23
2023-02-15T10:39:52.685Z,10.80
2023-02-15T10:42:31.065Z,10.27
2023-02-15T10:45:04.177Z,10.40
2023-02-15T10:47:36.607Z,10.80
2023-02-15T10:50:17.818Z,10.40
2023-02-15T10:53:06.520Z,10.30
2023-02-15T10:55:32.936Z,10.40
2023-02-15T10:58:18.685Z,9.40
2023-02-15T11:00:51.418Z,10.20
2023-02-15T11:03:36.431Z,9.77
2023-02-15T11:06:13.285Z,10.87
2023-02-15T11:08:51.549Z,11.17
2023-02-15T11:11:23.783Z,10.73
2023-02-15T11:13:53.588Z,10.27
2023-02-15T11:16:22.826Z,10.57
2023-02-15T11:18:54.962Z,9.33
2023-02-15T11:21:24.326Z,10.37
2023-02-15T11:23:52.200Z,9.93
2023-02-15T11:26:24.924Z,10.70
2023-02-15T11:29:10.996Z,10.50
2023-02-15T11:31:44.357Z,11.30
2023-02-15T11:34:20.008Z,11.00
2023-02-15T11:36:47.415Z,11.30
2023-02-15T11:39:16.634Z,11.40
2023-02-15T11:41:47.096Z,10.90
2023-02-15T11:44:23.623Z,11.50
2023-02-15T11:46:50.545Z,10.83
2023-02-15T11:49:31.395Z,12.50
2023-02-15T11:51:58.369Z,11.10
2023-02-15T11:54:29.836Z,12.80
2023-02-15T11:56:59.402Z,11.37
2023-02-15T11:59:30.619Z,12.43
2023-02-15T12:01:57.033Z,10.73
2023-02-15T12:04:25.647Z,11.03
2023-02-15T12:06:55.267Z,11.37
2023-02-15T12:09:29.737Z,13.97
2023-02-15T12:12:16.082Z,13.80
2023-02-15T12:14:50.308Z,12.90
2023-02-15T12:17:17.036Z,13.47
2023-02-15T12:19:43.723Z,12.73
2023-02-15T12:22:20.918Z,12.73
2023-02-15T12:24:48.454Z,14.27
2023-02-15T12:27:20.122Z,13.33
2023-02-15T12:30:08.222Z,13.30
2023-02-15T12:32:37.019Z,14.30
2023-02-15T12:35:14.672Z,13.43
2023-02-15T12:37:52.042Z,13.43
2023-02-15T12:40:22.840Z,13.37
2023-02-15T12:42:49.368Z,12.20
2023-02-15T12:45:29.633Z,13.07
2023-02-15T12:48:09.802Z,12.00
2023-02-15T12:50:36.509Z,13.00
2023-02-15T12:53:07.491Z,12.87
2023-02-15T12:55:34.322Z,13.43
2023-02-15T12:58:07.929Z,13.00
2023-02-15T13:00:35.571Z,13.17
2023-02-15T13:03:02.770Z,14.47
2023-02-15T13:05:32.199Z,13.47
2023-02-15T13:08:00.652Z,13.30
2023-02-15T13:10:32.342Z,12.13
2023-02-15T13:12:59.099Z,13.40
2023-02-15T13:15:27.153Z,12.77
2023-02-15T13:17:53.698Z,13.37
2023-02-15T13:20:23.749Z,14.87
2023-02-15T13:22:51.527Z,13.73
2023-02-15T13:25:22.705Z,13.27
2023-02-15T13:27:57.390Z,13.63
2023-02-15T13:30:24.071Z,13.57
2023-02-15T13:32:51.825Z,12.80
2023-02-15T13:35:19.673Z,13.00
2023-02-15T13:37:49.795Z,14.70
2023-02-15T13:40:38.258Z,13.40
2023-02-15T13:43:16.647Z,13.30
2023-02-15T13:45:52.055Z,13.23
2023-02-15T13:48:46.047Z,13.90
2023-02-15T13:51:33.969Z,14.60
2023-02-15T13:54:28.170Z,13.80
2023-02-15T13:57:02.769Z,14.27
2023-02-15T13:59:34.734Z,13.57
2023-02-15T14:02:19.787Z,12.57
2023-02-15T14:05:01.468Z,13.57
2023-02-15T14:07:46.642Z,14.40
2023-02-15T14:10:26.358Z,14.03
2023-02-15T14:13:05.274Z,14.87
2023-02-15T14:15:36.000Z,15.10
2023-02-15T14:18:05.430Z,12.80
2023-02-15T14:20:51.132Z,14.60
2023-02-15T14:23:30.505Z,15.17
2023-02-15T14:26:00.582Z,13.43
2023-02-15T14:28:34.958Z,15.63
2023-02-15T14:31:04.026Z,14.93
2023-02-15T14:33:35.622Z,14.60
2023-02-15T14:36:04.110Z,14.53
2023-02-15T14:38:33.701Z,15.73
2023-02-15T14:41:08.875Z,13.83
2023-02-15T14:43:35.267Z,14.77
2023-02-15T14:46:01.893Z,14.90
2023-02-15T14:48:33.212Z,14.10
2023-02-15T14:51:00.120Z,14.30
2023-02-15T14:53:33.028Z,13.93
2023-02-15T14:56:14.414Z,15.30
2023-02-15T14:58:50.058Z,13.83
2023-02-15T15:01:16.630Z,14.37
2023-02-15T15:03:49.634Z,14.20
2023-02-15T15:06:27.651Z,14.27
2023-02-15T15:08:56.581Z,14.40
2023-02-15T15:11:42.529Z,14.90
2023-02-15T15:14:10.356Z,14.67
2023-02-15T15:16:36.802Z,13.93
2023-02-15T15:19:05.013Z,13.50
2023-02-15T15:21:49.973Z,14.83
2023-02-15T15:24:34.938Z,15.23
2023-02-15T15:27:21.650Z,14.17
2023-02-15T15:29:48.063Z,14.73
2023-02-15T15:32:19.511Z,16.27
2023-02-15T15:35:02.000Z,17.17
2023-02-15T15:37:46.881Z,16.70
2023-02-15T15:40:19.156Z,18.27
2023-02-15T15:42:58.282Z,15.90
2023-02-15T15:45:37.511Z,18.20
2023-02-15T15:48:10.005Z,16.30
2023-02-15T15:50:39.482Z,17.40
2023-02-15T15:53:07.163Z,16.60
2023-02-15T15:55:34.744Z,16.67
2023-02-15T15:58:04.502Z,16.97
2023-02-15T16:00:47.266Z,16.30
2023-02-15T16:03:24.470Z,16.90
2023-02-15T16:05:57.111Z,15.50
2023-02-15T16:08:31.102Z,14.90
2023-02-15T16:10:58.101Z,13.73
2023-02-15T16:13:24.824Z,16.13
2023-02-15T16:15:53.469Z,16.10
2023-02-15T16:18:23.053Z,16.30
2023-02-15T16:20:51.893Z,14.97
2023-02-15T16:23:32.420Z,15.07
2023-02-15T16:26:06.606Z,14.50
2023-02-15T16:28:33.066Z,16.00
2023-02-15T16:31:13.154Z,15.87
2023-02-15T16:33:40.663Z,15.17
2023-02-15T16:36:10.808Z,15.80
2023-02-15T16:38:40.114Z,15.27
2023-02-15T16:41:06.781Z,15.27
2023-02-15T16:43:33.287Z,16.13
2023-02-15T16:46:04.908Z,14.87
2023-02-15T16:48:32.341Z,15.30
2023-02-15T16:50:59.820Z,17.47
2023-02-15T16:53:28.114Z,15.50
2023-02-15T16:55:56.014Z,16.60
2023-02-15T16:58:26.271Z,16.57
2023-02-15T17:00:55.775Z,17.30
2023-02-15T17:03:24.082Z,18.40
2023-02-15T17:05:55.256Z,18.43
2023-02-15T17:08:29.393Z,17.60
2023-02-15T17:11:15.138Z,17.00
2023-02-15T17:14:03.413Z,17.37
2023-02-15T17:16:32.533Z,16.83
2023-02-15T17:19:00.032Z,16.57
2023-02-15T17:21:29.532Z,16.37
2023-02-15T17:24:04.998Z,16.70
2023-02-15T17:26:33.475Z,17.30
2023-02-15T17:29:01.918Z,17.60
2023-02-15T17:31:33.113Z,16.00
2023-02-15T17:34:00.567Z,16.90
2023-02-15T17:36:30.165Z,16.03
2023-02-15T17:38:59.319Z,15.37
2023-02-15T17:41:30.261Z,16.10
2023-02-15T17:43:57.818Z,15.40
2023-02-15T17:46:25.290Z,15.17
2023-02-15T17:48:53.275Z,15.10
2023-02-15T17:51:21.381Z,14.63
2023-02-15T17:54:07.198Z,13.90
2023-02-15T17:56:34.299Z,14.70
2023-02-15T17:59:00.797Z,15.50
2023-02-15T18:01:46.288Z,13.50
2023-02-15T18:04:32.854Z,14.13
2023-02-15T18:07:18.205Z,15.00
2023-02-15T18:10:03.549Z,14.80
2023-02-15T18:12:31.615Z,14.17
2023-02-15T18:14:59.048Z,15.53
2023-02-15T18:17:38.989Z,14.60
2023-02-15T18:20:31.473Z,13.00
2023-02-15T18:22:58.217Z,15.67
2023-02-15T18:25:25.915Z,14.90
2023-02-15T18:27:54.870Z,14.30
2023-02-15T18:30:23.148Z,16.47
2023-02-15T18:32:51.325Z,16.67
2023-02-15T18:35:21.996Z,16.00
2023-02-15T18:37:49.084Z,16.37
2023-02-15T18:40:16.918Z,16.10
2023-02-15T18:42:48.306Z,16.37
2023-02-15T18:45:19.154Z,17.90
2023-02-15T18:47:48.594Z,18.00
2023-02-15T18:50:15.984Z,16.80
2023-02-15T18:52:43.497Z,15.10
2023-02-15T18:55:16.472Z,19.20
2023-02-15T18:57:44.835Z,19.27
2023-02-15T19:00:15.371Z,18.47
2023-02-15T19:02:41.886Z,16.10
2023-02-15T19:05:08.736Z,16.30
2023-02-15T19:07:36.291Z,17.53
2023-02-15T19:10:04.326Z,17.77
2023-02-15T19:12:31.812Z,17.83
2023-02-15T19:14:58.409Z,15.80
2023-02-15T19:17:25.908Z,16.07
2023-02-15T19:19:53.403Z,16.00
2023-02-15T19:22:23.065Z,16.20
2023-02-15T19:24:50.862Z,15.60
2023-02-15T19:27:23.074Z,17.63
2023-02-15T19:29:49.626Z,16.37
2023-02-15T19:32:16.161Z,16.70
2023-02-15T19:34:43.010Z,16.20
2023-02-15T19:37:16.786Z,16.30
2023-02-15T19:39:43.163Z,16.10
2023-02-15T19:42:13.894Z,17.30
2023-02-15T19:44:43.529Z,17.47
2023-02-15T19:47:13.659Z,16.03
2023-02-15T19:49:40.356Z,19.30
2023-02-15T19:52:12.354Z,18.20
2023-02-15T19:54:38.764Z,16.63
2023-02-15T19:57:05.262Z,17.90
2023-02-15T19:59:33.004Z,17.37
2023-02-15T20:01:59.696Z,20.30
2023-02-15T20:04:26.840Z,16.27
2023-02-15T20:06:55.040Z,16.57
2023-02-15T20:09:23.944Z,14.80
2023-02-15T20:11:51.721Z,14.43
2023-02-15T20:14:18.364Z,13.70
2023-02-15T20:16:45.181Z,14.40
2023-02-15T20:19:14.509Z,15.10
2023-02-15T20:21:42.700Z,14.67
2023-02-15T20:24:14.471Z,14.37
2023-02-15T20:26:40.926Z,15.30
2023-02-15T20:29:12.960Z,15.77
2023-02-15T20:31:39.912Z,14.23
2023-02-15T20:34:06.375Z,16.20
2023-02-15T20:36:32.946Z,13.90
2023-02-15T20:41:36.444Z,15.17
2023-02-15T20:44:22.559Z,15.10
2023-02-15T20:46:50.465Z,15.10
2023-02-15T20:49:17.047Z,14.50
2023-02-15T20:51:44.425Z,15.67
2023-02-15T20:54:12.801Z,15.63
2023-02-15T20:56:39.369Z,16.00
2023-02-15T20:59:12.734Z,16.57
2023-02-15T21:01:39.327Z,17.17
2023-02-15T21:04:08.591Z,19.07
2023-02-15T21:06:35.524Z,19.33
2023-02-15T21:09:03.305Z,18.23
2023-02-15T21:11:31.150Z,18.80
2023-02-15T21:13:57.645Z,17.30
2023-02-15T21:16:24.112Z,16.57
2023-02-15T21:18:50.548Z,15.57
2023-02-15T21:21:20.219Z,15.33
2023-02-15T21:23:47.514Z,15.97
2023-02-15T21:26:17.243Z,15.33
2023-02-15T21:28:45.530Z,13.57
2023-02-15T21:31:19.977Z,15.33
2023-02-15T21:33:46.967Z,14.53
2023-02-15T21:36:18.523Z,14.30
2023-02-15T21:38:45.170Z,15.93
2023-02-15T21:41:41.231Z,14.23
2023-02-15T21:44:40.406Z,15.73
2023-02-15T21:47:34.074Z,13.40
2023-02-15T21:50:20.493Z,14.60
2023-02-15T21:52:47.144Z,13.77
2023-02-15T21:55:14.833Z,14.20
2023-02-15T21:57:41.280Z,14.17
2023-02-15T22:00:13.389Z,14.13
2023-02-15T22:02:40.563Z,13.83
2023-02-15T22:05:13.032Z,13.77
2023-02-15T22:07:39.449Z,14.00
2023-02-15T22:10:06.266Z,14.03
2023-02-15T22:12:32.778Z,14.57
2023-02-15T22:14:59.209Z,13.10
2023-02-15T22:17:26.736Z,13.50
2023-02-15T22:19:53.788Z,13.17
2023-02-15T22:22:20.323Z,13.57
2023-02-15T22:24:47.302Z,13.47
2023-02-15T22:27:18.702Z,13.00
2023-02-15T22:29:45.313Z,12.00
2023-02-15T22:32:21.721Z,13.73
2023-02-15T22:34:48.657Z,12.97
2023-02-15T22:37:15.098Z,13.57
2023-02-15T22:39:41.783Z,13.77
2023-02-15T22:42:25.096Z,13.00
2023-02-15T22:44:52.954Z,13.63
2023-02-15T22:47:23.759Z,12.50
2023-02-15T22:49:50.716Z,13.70
2023-02-15T22:52:17.461Z,12.57
2023-02-15T22:54:43.923Z,13.63
2023-02-15T22:57:29.235Z,12.90
2023-02-15T22:59:56.289Z,13.67
2023-02-15T23:02:22.756Z,12.73
2023-02-15T23:04:49.256Z,13.30
2023-02-15T23:07:17.914Z,13.13
2023-02-15T23:09:44.881Z,11.17
2023-02-15T23:12:23.967Z,12.50
2023-02-15T23:14:50.611Z,13.33
2023-02-15T23:17:17.205Z,13.20
2023-02-15T23:19:43.740Z,13.30
2023-02-15T23:22:14.842Z,13.23
2023-02-15T23:24:41.591Z,12.50
2023-02-15T23:27:33.264Z,14.30
2023-02-15T23:29:59.773Z,14.20
2023-02-15T23:32:26.288Z,14.40
2023-02-15T23:34:52.781Z,14.30
2023-02-15T23:37:19.239Z,13.70
2023-02-15T23:40:04.609Z,13.97
2023-02-15T23:42:33.156Z,13.90
2023-02-15T23:44:59.979Z,13.40
2023-02-15T23:47:48.635Z,12.63
2023-02-15T23:50:19.555Z,13.43
2023-02-15T23:52:46.121Z,12.60
2023-02-15T23:55:13.736Z,12.53
2023-02-15T23:57:41.001Z,12.50
